Time;durP1;ratioP1;P1;durP2;ratioP2;P2;SDS_P1;SDS_P2;PMS_P1;PMS_P2;Temp;Humidity;BMP_temperature;BMP_pressure;BME280_temperature;BME280_humidity;BME280_pressure;Samples;Min_cycle;Max_cycle;Signal;HPM_P1;HPM_P2
2022/12/23 00:05:00;;;;;;;11.60;4.72;;;9.90;99.90;;;;;;20675878;28;20041;-43
2022/12/23 00:15:04;;;;;;;17.30;4.60;;;9.90;99.90;;;;;;20693049;28;20042;-43
2022/12/23 00:25:05;;;;;;;11.43;6.00;;;9.90;99.90;;;;;;20686804;28;20548;-43
2022/12/23 00:35:07;;;;;;;10.55;4.82;;;9.80;99.90;;;;;;20680748;28;20042;-43
2022/12/23 00:45:14;;;;;;;14.30;6.15;;;9.80;99.90;;;;;;20680849;28;20287;-42
2022/12/23 00:55:15;;;;;;;8.93;5.30;;;9.80;99.90;;;;;;20690263;28;20049;-43
2022/12/23 01:15:36;;;;;;;11.45;6.65;;;9.80;99.90;;;;;;20671275;28;20042;-42
2022/12/23 01:25:37;;;;;;;7.78;4.03;;;9.70;99.90;;;;;;20670418;28;20045;-42
2022/12/23 01:35:38;;;;;;;10.43;5.25;;;9.70;99.90;;;;;;20671106;28;20053;-43
2022/12/23 01:45:39;;;;;;;16.90;6.60;;;9.80;99.90;;;;;;20672905;28;20041;-43
2022/12/23 01:56:05;;;;;;;9.55;5.30;;;9.70;99.90;;;;;;20666404;28;20097;-41
2022/12/23 02:16:42;;;;;;;7.28;4.47;;;9.70;99.90;;;;;;20669428;28;20731;-43
2022/12/23 02:27:01;;;;;;;11.52;4.05;;;9.60;99.90;;;;;;20671611;28;20053;-43
2022/12/23 02:37:23;;;;;;;8.27;4.18;;;9.50;99.90;;;;;;20675216;28;20136;-42
2022/12/23 02:47:47;;;;;;;8.30;4.47;;;9.60;99.90;;;;;;20675728;28;20787;-43
2022/12/23 02:57:51;;;;;;;6.47;3.47;;;9.50;99.90;;;;;;20684325;28;21610;-42
2022/12/23 03:07:55;;;;;;;5.45;3.55;;;9.50;99.90;;;;;;20684164;28;20143;-43
2022/12/23 03:18:03;;;;;;;4.85;3.35;;;9.50;99.90;;;;;;20691981;28;20038;-42
2022/12/23 03:28:14;;;;;;;5.93;3.45;;;9.40;99.90;;;;;;20669715;28;20085;-42
2022/12/23 03:38:17;;;;;;;6.45;3.75;;;9.40;99.90;;;;;;20668216;28;20860;-42
2022/12/23 03:48:28;;;;;;;7.93;4.43;;;9.30;99.90;;;;;;20669945;28;20073;-43
2022/12/23 03:58:44;;;;;;;6.60;3.78;;;9.30;99.90;;;;;;20670316;28;20468;-42
2022/12/23 04:08:47;;;;;;;7.20;4.05;;;9.20;99.90;;;;;;20665645;28;20112;-43
2022/12/23 04:18:48;;;;;;;7.63;4.00;;;9.20;99.90;;;;;;20668473;28;20057;-42
2022/12/23 04:28:49;;;;;;;7.45;4.43;;;9.20;99.90;;;;;;20669081;28;20049;-42
2022/12/23 04:38:50;;;;;;;7.35;3.75;;;9.20;99.90;;;;;;20666281;28;20048;-42
2022/12/23 04:48:51;;;;;;;5.03;2.95;;;9.10;99.90;;;;;;20660703;28;20049;-43
2022/12/23 04:58:52;;;;;;;6.75;4.40;;;9.10;99.90;;;;;;20664325;28;20057;-42
2022/12/23 05:08:53;;;;;;;7.13;3.88;;;9.00;99.90;;;;;;20666418;28;20054;-42
2022/12/23 05:18:54;;;;;;;6.03;3.72;;;9.00;99.90;;;;;;20670439;28;20099;-42
2022/12/23 05:28:55;;;;;;;7.03;3.83;;;9.00;99.90;;;;;;20660285;28;20042;-42
2022/12/23 05:38:56;;;;;;;4.53;3.10;;;8.90;99.90;;;;;;20655080;28;21818;-42
2022/12/23 05:48:57;;;;;;;7.22;3.88;;;8.90;99.90;;;;;;20656077;28;20160;-42
2022/12/23 05:58:58;;;;;;;4.30;2.72;;;8.90;99.90;;;;;;20655597;28;20069;-43
2022/12/23 06:08:59;;;;;;;6.90;3.88;;;8.90;99.90;;;;;;20658283;28;20109;-42
2022/12/23 06:19:01;;;;;;;7.25;4.05;;;8.90;99.90;;;;;;20658072;28;20501;-42
2022/12/23 06:29:03;;;;;;;6.25;3.45;;;8.90;99.90;;;;;;20673195;28;20516;-43
2022/12/23 06:39:04;;;;;;;6.22;3.45;;;9.00;99.90;;;;;;20668107;28;20065;-42
2022/12/23 06:49:05;;;;;;;4.75;2.90;;;9.00;99.90;;;;;;20666447;28;20084;-42
2022/12/23 06:59:06;;;;;;;7.13;3.67;;;8.90;99.90;;;;;;20667054;28;20069;-42
2022/12/23 07:09:07;;;;;;;8.15;5.95;;;8.90;99.90;;;;;;20679011;28;20220;-42
2022/12/23 07:19:08;;;;;;;14.77;4.90;;;8.90;99.90;;;;;;20656659;28;20936;-42
2022/12/23 07:29:09;;;;;;;8.40;5.80;;;8.90;99.90;;;;;;20665859;28;20077;-42
2022/12/23 07:39:10;;;;;;;5.95;3.95;;;8.90;99.90;;;;;;20667552;28;20046;-42
2022/12/23 07:49:11;;;;;;;12.60;6.90;;;8.90;99.90;;;;;;20645155;28;20069;-43
2022/12/23 07:59:12;;;;;;;8.85;5.22;;;8.90;99.90;;;;;;20632101;28;20038;-43
2022/12/23 08:09:13;;;;;;;11.48;6.57;;;8.90;99.90;;;;;;20675425;28;20100;-42
2022/12/23 08:19:14;;;;;;;15.23;8.15;;;8.90;99.90;;;;;;20683410;28;20072;-43
2022/12/23 08:29:15;;;;;;;9.00;5.35;;;8.90;99.90;;;;;;20680596;28;20069;-42
2022/12/23 08:39:16;;;;;;;18.58;9.80;;;8.90;99.90;;;;;;20682378;28;20272;-43
2022/12/23 08:49:17;;;;;;;47.10;14.85;;;9.00;99.90;;;;;;20679854;28;20526;-42
2022/12/23 08:59:18;;;;;;;27.00;13.20;;;9.00;99.90;;;;;;20676757;28;20120;-42
2022/12/23 09:09:19;;;;;;;36.67;13.63;;;9.10;99.90;;;;;;20686723;28;20045;-43
2022/12/23 09:19:20;;;;;;;19.38;10.32;;;9.20;99.90;;;;;;20670968;28;20483;-43
2022/12/23 09:29:22;;;;;;;25.17;11.55;;;9.10;99.90;;;;;;20683683;28;20409;-42
2022/12/23 09:39:23;;;;;;;19.38;9.77;;;9.20;99.90;;;;;;20679848;28;20570;-42
2022/12/23 09:49:24;;;;;;;17.00;9.10;;;9.20;99.90;;;;;;20679428;28;20046;-43
2022/12/23 09:59:36;;;;;;;9.40;5.30;;;9.30;99.90;;;;;;20698060;28;20045;-42
2022/12/23 10:09:39;;;;;;;14.10;5.78;;;9.30;99.90;;;;;;20703300;28;20050;-42
2022/12/23 10:19:46;;;;;;;11.10;6.05;;;9.30;99.90;;;;;;20701166;28;20088;-43
2022/12/23 10:29:48;;;;;;;14.90;6.50;;;9.30;99.90;;;;;;20697124;28;20065;-42
2022/12/23 10:40:20;;;;;;;18.65;9.32;;;9.30;99.90;;;;;;20708654;28;20049;-42
2022/12/23 10:50:33;;;;;;;15.88;9.35;;;9.40;99.90;;;;;;20696996;28;20827;-42
2022/12/23 11:00:38;;;;;;;20.50;11.18;;;9.40;99.90;;;;;;20708772;28;20452;-43
2022/12/23 11:10:40;;;;;;;24.85;11.77;;;9.40;99.90;;;;;;20701086;28;20080;-43
2022/12/23 11:20:43;;;;;;;27.67;14.27;;;9.40;99.90;;;;;;20700336;28;20092;-42
2022/12/23 11:31:04;;;;;;;19.23;11.55;;;9.50;99.90;;;;;;20690980;28;20088;-42
2022/12/23 11:41:06;;;;;;;22.25;12.13;;;9.50;99.90;;;;;;20666075;28;20149;-41
2022/12/23 11:51:07;;;;;;;23.38;13.50;;;9.50;99.90;;;;;;20667672;28;20069;-41
2022/12/23 12:01:19;;;;;;;32.42;15.75;;;9.50;99.90;;;;;;20685575;28;20046;-42
2022/12/23 12:11:37;;;;;;;26.30;14.70;;;9.50;99.90;;;;;;20692248;28;20104;-42
2022/12/23 12:21:38;;;;;;;30.77;13.30;;;9.40;99.90;;;;;;20696219;28;20038;-42
2022/12/23 12:31:41;;;;;;;20.75;14.32;;;9.50;99.90;;;;;;20698847;28;20030;-43
2022/12/23 12:41:56;;;;;;;41.00;12.85;;;9.40;99.90;;;;;;20693916;28;20041;-43
2022/12/23 12:52:12;;;;;;;26.55;14.15;;;9.40;99.90;;;;;;20696930;28;20042;-43
2022/12/23 13:02:38;;;;;;;23.70;15.50;;;9.40;99.90;;;;;;20692807;28;20642;-42
2022/12/23 13:12:50;;;;;;;23.33;11.98;;;9.40;99.90;;;;;;20686884;28;20048;-43
2022/12/23 13:22:57;;;;;;;15.90;8.95;;;9.40;99.90;;;;;;20679621;28;20049;-43
2022/12/23 13:33:23;;;;;;;10.68;6.28;;;9.40;99.90;;;;;;20648275;28;20232;-42
2022/12/23 13:43:34;;;;;;;12.15;8.68;;;9.40;99.90;;;;;;20639102;28;20878;-43
2022/12/23 13:53:48;;;;;;;9.55;5.68;;;9.50;99.90;;;;;;20648372;28;20038;-41
2022/12/23 14:03:49;;;;;;;10.25;6.40;;;9.50;99.90;;;;;;20632870;28;20173;-43
2022/12/23 14:13:50;;;;;;;8.55;5.28;;;9.40;99.90;;;;;;20651333;28;20415;-43
2022/12/23 14:24:04;;;;;;;8.25;5.88;;;9.50;99.90;;;;;;20653731;28;20524;-43
2022/12/23 14:34:19;;;;;;;9.82;6.20;;;9.40;99.90;;;;;;20636949;28;20580;-42
2022/12/23 14:44:40;;;;;;;7.65;5.72;;;9.40;99.90;;;;;;20637933;28;20879;-43
2022/12/23 14:54:41;;;;;;;7.68;4.50;;;9.40;99.90;;;;;;20631560;28;20180;-43
2022/12/23 15:04:56;;;;;;;10.30;5.65;;;9.40;99.90;;;;;;20646775;28;20115;-43
2022/12/23 15:15:13;;;;;;;6.90;4.32;;;9.30;99.90;;;;;;20662959;28;20111;-43
2022/12/23 15:25:32;;;;;;;9.27;3.85;;;9.30;99.90;;;;;;20669985;28;20082;-43
2022/12/23 15:35:37;;;;;;;12.27;5.88;;;9.30;99.90;;;;;;20648369;28;20197;-43
2022/12/23 15:45:40;;;;;;;7.22;3.75;;;9.40;99.90;;;;;;20587722;28;20074;-43
2022/12/23 15:55:41;;;;;;;7.63;4.57;;;9.40;99.90;;;;;;20639229;28;20161;-44
2022/12/23 16:05:43;;;;;;;11.75;6.25;;;9.30;99.90;;;;;;20653600;28;20136;-43
2022/12/23 16:15:45;;;;;;;7.55;3.92;;;9.40;99.90;;;;;;20640893;28;20120;-43
2022/12/23 16:25:48;;;;;;;9.23;4.68;;;9.40;99.90;;;;;;20640891;28;20137;-43
2022/12/23 16:35:49;;;;;;;9.52;4.68;;;9.40;99.90;;;;;;20661232;28;20918;-43
2022/12/23 16:45:54;;;;;;;5.72;3.83;;;9.40;99.90;;;;;;20639252;28;20140;-42
2022/12/23 16:55:56;;;;;;;7.00;5.15;;;9.40;99.90;;;;;;20648468;28;20509;-42
2022/12/23 17:05:57;;;;;;;11.15;6.53;;;9.40;99.90;;;;;;20661567;28;20084;-42
2022/12/23 17:15:58;;;;;;;9.43;5.47;;;9.40;99.90;;;;;;20652692;28;20050;-42
2022/12/23 17:25:59;;;;;;;10.48;6.25;;;9.50;99.90;;;;;;20651796;28;20045;-42
2022/12/23 17:36:01;;;;;;;13.73;7.43;;;9.60;99.90;;;;;;20652983;28;20643;-42
2022/12/23 17:46:02;;;;;;;9.18;5.32;;;9.60;99.90;;;;;;20620931;28;20274;-42
2022/12/23 17:56:12;;;;;;;6.28;3.28;;;9.90;99.90;;;;;;20631379;28;20089;-43
2022/12/23 18:06:17;;;;;;;5.38;3.13;;;10.20;99.90;;;;;;20636037;28;20720;-42
2022/12/23 18:16:18;;;;;;;7.38;3.03;;;10.30;99.90;;;;;;20649516;28;20245;-42
2022/12/23 18:26:19;;;;;;;20.77;9.60;;;10.40;99.90;;;;;;20657564;28;20161;-41
2022/12/23 18:36:30;;;;;;;15.82;4.57;;;10.50;99.90;;;;;;20641318;28;20601;-42
2022/12/23 18:46:31;;;;;;;25.70;9.93;;;10.60;99.90;;;;;;20631146;28;20050;-42
2022/12/23 18:56:32;;;;;;;16.25;6.07;;;10.60;99.90;;;;;;20700617;28;20048;-42
2022/12/23 19:06:33;;;;;;;9.82;4.00;;;10.60;99.90;;;;;;20696917;28;20056;-42
2022/12/23 19:16:34;;;;;;;14.43;6.18;;;10.70;99.90;;;;;;20685645;28;20045;-42
2022/12/23 19:26:35;;;;;;;16.80;6.93;;;10.70;99.90;;;;;;20669682;28;20124;-42
2022/12/23 19:36:36;;;;;;;29.00;7.70;;;10.70;99.90;;;;;;20585974;28;20129;-42
2022/12/23 19:46:37;;;;;;;25.35;5.78;;;10.70;99.90;;;;;;20618908;28;20050;-43
2022/12/23 19:56:38;;;;;;;49.72;8.27;;;10.80;99.90;;;;;;20642589;28;20679;-42
2022/12/23 20:06:40;;;;;;;10.00;4.78;;;10.80;99.90;;;;;;20651633;28;20129;-42
2022/12/23 20:16:42;;;;;;;10.20;3.38;;;10.80;99.90;;;;;;20660123;28;20512;-42
2022/12/23 20:26:43;;;;;;;8.70;3.53;;;10.80;99.90;;;;;;20642756;28;20145;-43
2022/12/23 20:36:44;;;;;;;9.75;3.90;;;10.90;99.90;;;;;;20654190;28;20274;-43
2022/12/23 20:46:45;;;;;;;8.73;3.45;;;10.90;99.90;;;;;;20653460;28;21714;-43
2022/12/23 20:56:46;;;;;;;5.57;2.50;;;10.90;99.90;;;;;;20654368;28;20066;-42
2022/12/23 21:06:48;;;;;;;6.45;2.08;;;10.80;99.90;;;;;;20648151;28;20193;-43
2022/12/23 21:16:49;;;;;;;18.67;3.83;;;10.90;99.90;;;;;;20656835;28;20098;-42
2022/12/23 21:26:52;;;;;;;5.10;1.42;;;10.80;99.90;;;;;;20659726;28;20124;-42
2022/12/23 21:36:53;;;;;;;4.22;1.45;;;10.70;99.90;;;;;;20647844;28;20743;-43
2022/12/23 21:46:54;;;;;;;4.05;1.70;;;10.70;99.90;;;;;;20646609;28;20872;-43
2022/12/23 21:56:55;;;;;;;5.00;1.88;;;10.80;99.90;;;;;;20671889;28;20089;-43
2022/12/23 22:06:56;;;;;;;5.10;2.25;;;10.80;99.90;;;;;;20680930;28;20204;-43
2022/12/23 22:16:57;;;;;;;5.07;2.40;;;10.70;99.90;;;;;;20670178;28;20038;-43
2022/12/23 22:26:58;;;;;;;5.20;2.10;;;10.70;99.90;;;;;;20663147;28;20080;-43
2022/12/23 22:36:59;;;;;;;6.55;2.13;;;10.50;99.90;;;;;;20649270;28;20470;-43
2022/12/23 22:47:00;;;;;;;6.07;2.10;;;10.40;99.90;;;;;;20676412;28;20577;-43
2022/12/23 22:57:01;;;;;;;13.85;2.75;;;10.40;99.90;;;;;;20706845;28;20100;-43
2022/12/23 23:07:02;;;;;;;5.45;2.30;;;10.40;99.90;;;;;;20695521;28;20038;-43
2022/12/23 23:17:03;;;;;;;7.03;2.20;;;10.50;99.90;;;;;;20689907;28;20050;-43
2022/12/23 23:27:05;;;;;;;12.27;3.25;;;10.30;99.90;;;;;;20678953;28;20042;-42
2022/12/23 23:37:06;;;;;;;7.57;2.83;;;10.30;99.90;;;;;;20660679;28;20289;-43
2022/12/23 23:47:07;;;;;;;18.95;2.72;;;10.30;99.90;;;;;;20664161;28;20045;-43
2022/12/23 23:57:09;;;;;;;8.52;2.28;;;10.30;99.90;;;;;;20674209;28;20229;-43
